createdAt,value
2023-06-03T00:00:26.157Z,102134.44
2023-06-03T00:02:55.076Z,102268.66
2023-06-03T00:05:23.717Z,102290.50
2023-06-03T00:07:52.125Z,102297.81
2023-06-03T00:10:20.551Z,102293.72
2023-06-03T00:12:50.378Z,102017.66
2023-06-03T00:15:18.718Z,102242.72
2023-06-03T00:17:47.055Z,102289.78
2023-06-03T00:20:16.234Z,102137.81
2023-06-03T00:22:46.288Z,102241.44
2023-06-03T00:25:14.560Z,102294.47
2023-06-03T00:27:44.675Z,102125.56
2023-06-03T00:30:14.517Z,102260.66
2023-06-03T00:32:42.854Z,102294.47
2023-06-03T00:35:11.848Z,102258.66
2023-06-03T00:37:40.554Z,102108.06
2023-06-03T00:40:11.537Z,102129.31
2023-06-03T00:42:39.796Z,102291.38
2023-06-03T00:45:09.829Z,102200.41
2023-06-03T00:47:40.354Z,102297.88
2023-06-03T00:50:11.723Z,102291.22
2023-06-03T00:52:42.461Z,102300.13
2023-06-03T00:55:11.656Z,102267.69
2023-06-03T00:57:40.069Z,102178.66
2023-06-03T01:00:11.770Z,102293.38
2023-06-03T01:02:45.325Z,102290.38
2023-06-03T01:05:14.949Z,102292.06
2023-06-03T01:07:57.481Z,102288.56
2023-06-03T01:10:39.595Z,102295.59
2023-06-03T01:13:17.539Z,102243.38
2023-06-03T01:15:48.804Z,102108.56
2023-06-03T01:18:19.995Z,102159.72
2023-06-03T01:20:49.524Z,102180.03
2023-06-03T01:23:25.354Z,102283.72
2023-06-03T01:25:57.904Z,102264.94
2023-06-03T01:28:29.037Z,102238.13
2023-06-03T01:30:58.767Z,102225.69
2023-06-03T01:33:30.936Z,102260.41
2023-06-03T01:36:04.452Z,102268.13
2023-06-03T01:38:35.856Z,102159.25
2023-06-03T01:41:05.966Z,102239.09
2023-06-03T01:43:34.830Z,102283.09
2023-06-03T01:46:03.393Z,102264.84
2023-06-03T01:48:32.000Z,102264.88
2023-06-03T01:51:00.831Z,102284.19
2023-06-03T01:53:29.912Z,102280.53
2023-06-03T01:56:00.445Z,102275.75
2023-06-03T01:58:28.823Z,102219.13
2023-06-03T02:00:57.641Z,102135.63
2023-06-03T02:03:26.186Z,102281.22
2023-06-03T02:05:54.466Z,102278.66
2023-06-03T02:08:22.889Z,102274.41
2023-06-03T02:10:51.180Z,102258.59
2023-06-03T02:13:21.424Z,102280.75
2023-06-03T02:15:49.783Z,102282.03
2023-06-03T02:18:19.185Z,102225.50
2023-06-03T02:20:49.375Z,102277.75
2023-06-03T02:23:17.700Z,102244.56
2023-06-03T02:25:45.976Z,102273.94
2023-06-03T02:28:17.762Z,102273.22
2023-06-03T02:30:47.579Z,102243.44
2023-06-03T02:33:16.004Z,102278.88
2023-06-03T02:35:45.646Z,102211.88
2023-06-03T02:38:13.939Z,102240.50
2023-06-03T02:40:42.958Z,102288.88
2023-06-03T02:43:11.485Z,102243.44
2023-06-03T02:45:39.873Z,102269.22
2023-06-03T02:48:10.289Z,102279.38
2023-06-03T02:50:38.732Z,102130.16
2023-06-03T02:53:09.062Z,102032.28
2023-06-03T02:55:37.856Z,102090.88
2023-06-03T02:58:06.549Z,102236.19
2023-06-03T03:00:35.046Z,102263.31
2023-06-03T03:03:03.643Z,102261.25
2023-06-03T03:05:33.757Z,102037.34
2023-06-03T03:08:02.202Z,102263.41
2023-06-03T03:10:30.523Z,102228.94
2023-06-03T03:12:58.815Z,102212.81
2023-06-03T03:15:27.879Z,102166.34
2023-06-03T03:17:57.138Z,102236.41
2023-06-03T03:20:30.193Z,102282.47
2023-06-03T03:23:01.190Z,102238.25
2023-06-03T03:25:29.487Z,102248.81
2023-06-03T03:27:59.400Z,102248.16
2023-06-03T03:30:28.428Z,102065.31
2023-06-03T03:33:00.084Z,102035.31
2023-06-03T03:35:29.250Z,102292.81
2023-06-03T03:38:04.672Z,102281.69
2023-06-03T03:40:39.536Z,102259.06
2023-06-03T03:43:17.111Z,102161.94
2023-06-03T03:45:46.885Z,102210.38
2023-06-03T03:48:21.822Z,102285.91
2023-06-03T03:50:55.130Z,102287.03
2023-06-03T03:53:38.195Z,102262.34
2023-06-03T03:56:20.086Z,102242.56
2023-06-03T03:58:54.367Z,102062.03
2023-06-03T04:01:26.534Z,102287.91
2023-06-03T04:04:01.902Z,102284.25
2023-06-03T04:06:37.775Z,102125.53
2023-06-03T04:09:11.476Z,102287.38
2023-06-03T04:11:43.728Z,102227.59
2023-06-03T04:14:16.640Z,102241.31
2023-06-03T04:16:55.948Z,102291.19
2023-06-03T04:19:38.355Z,102246.03
2023-06-03T04:22:22.788Z,102231.75
2023-06-03T04:25:01.671Z,102260.81
2023-06-03T04:27:42.808Z,102295.19
2023-06-03T04:30:14.384Z,102219.22
2023-06-03T04:32:42.802Z,102284.69
2023-06-03T04:35:11.808Z,102146.44
2023-06-03T04:37:44.043Z,102295.69
2023-06-03T04:40:18.029Z,102185.59
2023-06-03T04:42:49.121Z,102302.50
2023-06-03T04:45:18.351Z,102291.81
2023-06-03T04:47:48.607Z,102296.03
2023-06-03T04:50:21.519Z,102295.38
2023-06-03T04:52:52.320Z,102303.84
2023-06-03T04:55:23.995Z,102302.19
2023-06-03T04:57:52.594Z,102302.78
2023-06-03T05:00:23.608Z,102266.66
2023-06-03T05:03:01.233Z,102307.75
2023-06-03T05:05:32.288Z,102240.56
2023-06-03T05:08:01.284Z,102304.91
2023-06-03T05:10:31.274Z,102286.59
2023-06-03T05:12:59.703Z,102281.53
2023-06-03T05:15:29.416Z,102030.16
2023-06-03T05:18:00.222Z,102308.94
2023-06-03T05:20:28.654Z,102243.75
2023-06-03T05:22:57.191Z,102239.66
2023-06-03T05:25:25.698Z,102174.06
2023-06-03T05:28:03.914Z,102166.06
2023-06-03T05:30:34.552Z,102251.69
2023-06-03T05:33:03.439Z,102314.34
2023-06-03T05:35:31.914Z,102314.94
2023-06-03T05:38:00.999Z,102316.63
2023-06-03T05:40:29.429Z,102298.72
2023-06-03T05:43:00.430Z,102179.78
2023-06-03T05:45:30.078Z,102178.56
2023-06-03T05:47:58.578Z,102314.53
2023-06-03T05:50:27.621Z,102318.75
2023-06-03T05:52:57.250Z,102161.38
2023-06-03T05:55:26.233Z,102316.34
2023-06-03T05:57:55.542Z,102321.69
2023-06-03T06:00:25.548Z,102298.56
2023-06-03T06:02:58.053Z,102234.28
2023-06-03T06:05:26.609Z,102244.97
2023-06-03T06:07:55.725Z,102322.50
2023-06-03T06:10:24.322Z,102317.69
2023-06-03T06:12:52.789Z,102325.75
2023-06-03T06:15:22.082Z,102325.72
2023-06-03T06:17:52.048Z,102330.03
2023-06-03T06:20:20.597Z,102222.06
2023-06-03T06:22:50.846Z,102324.25
2023-06-03T06:25:20.430Z,102312.28
2023-06-03T06:27:50.942Z,102077.19
2023-06-03T06:30:22.366Z,102284.56
2023-06-03T06:32:54.077Z,102105.28
2023-06-03T06:35:30.453Z,102329.97
2023-06-03T06:38:01.196Z,102217.81
2023-06-03T06:40:36.341Z,102308.94
2023-06-03T06:43:10.232Z,102259.19
2023-06-03T06:45:45.485Z,102284.63
2023-06-03T06:48:16.203Z,102317.63
2023-06-03T06:50:54.158Z,102278.31
2023-06-03T06:53:28.781Z,102244.44
2023-06-03T06:56:06.099Z,102243.34
2023-06-03T06:58:45.147Z,102229.53
2023-06-03T07:01:14.205Z,102338.19
2023-06-03T07:03:50.924Z,102319.69
2023-06-03T07:06:20.469Z,102292.72
2023-06-03T07:08:52.370Z,102342.50
2023-06-03T07:11:24.006Z,102321.38
2023-06-03T07:14:01.748Z,102329.91
2023-06-03T07:16:30.689Z,102303.53
2023-06-03T07:19:00.934Z,102225.44
2023-06-03T07:21:36.460Z,102300.38
2023-06-03T07:24:08.916Z,102194.59
2023-06-03T07:26:38.279Z,102326.09
2023-06-03T07:29:06.698Z,102333.72
2023-06-03T07:31:38.261Z,102330.97
2023-06-03T07:34:10.152Z,102332.22
2023-06-03T07:36:43.051Z,102338.84
2023-06-03T07:39:19.754Z,102330.13
2023-06-03T07:41:53.883Z,102246.56
2023-06-03T07:44:44.202Z,102292.97
2023-06-03T07:47:15.796Z,102286.28
2023-06-03T07:49:49.211Z,102313.63
2023-06-03T07:52:20.492Z,102335.50
2023-06-03T07:54:49.532Z,102204.63
2023-06-03T07:57:18.248Z,102331.66
2023-06-03T07:59:54.062Z,102297.53
2023-06-03T08:02:23.291Z,102211.47
2023-06-03T08:04:57.462Z,102232.56
2023-06-03T08:07:26.463Z,102312.38
2023-06-03T08:09:54.986Z,102273.41
2023-06-03T08:12:30.764Z,102330.44
2023-06-03T08:14:59.958Z,102304.38
2023-06-03T08:17:40.609Z,102313.81
2023-06-03T08:20:12.055Z,102334.59
2023-06-03T08:22:44.406Z,102333.16
2023-06-03T08:25:14.495Z,102320.16
2023-06-03T08:27:43.194Z,102328.81
2023-06-03T08:30:14.958Z,102307.69
2023-06-03T08:32:46.468Z,102330.22
2023-06-03T08:35:18.931Z,102328.94
2023-06-03T08:37:47.753Z,102322.94
2023-06-03T08:40:18.591Z,102302.19
2023-06-03T08:42:49.224Z,102320.94
2023-06-03T08:45:18.847Z,102320.63
2023-06-03T08:48:08.618Z,102319.44
2023-06-03T08:50:39.580Z,102205.97
2023-06-03T08:53:12.888Z,102323.38
2023-06-03T08:55:41.785Z,102284.72
2023-06-03T08:58:20.258Z,102255.75
2023-06-03T09:00:53.809Z,102316.63
2023-06-03T09:03:23.003Z,102314.47
2023-06-03T09:05:54.739Z,102299.72
2023-06-03T09:08:24.263Z,102314.78
2023-06-03T09:10:53.383Z,102274.13
2023-06-03T09:13:24.400Z,102300.03
2023-06-03T09:15:54.129Z,102306.44
2023-06-03T09:18:23.123Z,102206.72
2023-06-03T09:20:52.925Z,102290.28
2023-06-03T09:23:22.154Z,102211.41
2023-06-03T09:25:50.845Z,102288.09
2023-06-03T09:28:19.270Z,102298.09
2023-06-03T09:30:47.745Z,102194.25
2023-06-03T09:33:17.468Z,102275.78
2023-06-03T09:35:45.938Z,102299.28
2023-06-03T09:38:16.025Z,102301.38
2023-06-03T09:40:44.394Z,102302.72
2023-06-03T09:43:13.570Z,102310.28
2023-06-03T09:45:42.203Z,102312.06
2023-06-03T09:48:11.710Z,102306.34
2023-06-03T09:50:50.631Z,102292.56
2023-06-03T09:53:22.979Z,102313.53
2023-06-03T09:55:51.387Z,102318.88
2023-06-03T09:58:24.298Z,102203.72
2023-06-03T10:00:56.385Z,102254.59
2023-06-03T10:03:26.724Z,102277.34
2023-06-03T10:05:55.447Z,102264.56
2023-06-03T10:08:32.119Z,102295.88
2023-06-03T10:11:03.199Z,102311.47
2023-06-03T10:13:31.766Z,102313.72
2023-06-03T10:16:02.708Z,102288.91
2023-06-03T10:18:39.314Z,102293.56
2023-06-03T10:21:10.321Z,102300.06
2023-06-03T10:23:44.440Z,102293.69
2023-06-03T10:26:13.114Z,102278.53
2023-06-03T10:28:41.732Z,102274.97
2023-06-03T10:31:13.773Z,102205.19
2023-06-03T10:33:42.584Z,102286.03
2023-06-03T10:36:13.944Z,102303.72
2023-06-03T10:38:43.703Z,102296.47
2023-06-03T10:41:13.775Z,102296.38
2023-06-03T10:43:45.732Z,102266.56
2023-06-03T10:46:15.901Z,102121.34
2023-06-03T10:48:48.052Z,102299.72
2023-06-03T10:51:39.808Z,102221.72
2023-06-03T10:54:38.860Z,102147.63
2023-06-03T10:57:10.633Z,102253.34
2023-06-03T10:59:44.597Z,102267.41
2023-06-03T11:02:14.091Z,102277.06
2023-06-03T11:04:43.378Z,102251.41
2023-06-03T11:07:45.653Z,102269.81
2023-06-03T11:10:46.421Z,102248.41
2023-06-03T11:13:41.996Z,102296.91
2023-06-03T11:16:11.961Z,102211.84
2023-06-03T11:18:40.654Z,102119.69
2023-06-03T11:21:51.326Z,102199.13
2023-06-03T11:24:52.830Z,102295.25
2023-06-03T11:27:26.682Z,102287.22
2023-06-03T11:29:58.275Z,102291.31
2023-06-03T11:32:28.290Z,102292.34
2023-06-03T11:35:31.387Z,102264.31
2023-06-03T11:38:00.451Z,102298.34
2023-06-03T11:40:46.406Z,102288.03
2023-06-03T11:43:16.151Z,102252.81
2023-06-03T11:45:44.610Z,102286.09
2023-06-03T11:48:14.616Z,102182.97
2023-06-03T11:50:51.422Z,102182.16
2023-06-03T11:53:34.243Z,102225.94
2023-06-03T11:56:09.336Z,102254.75
2023-06-03T11:58:41.321Z,102202.97
2023-06-03T12:01:12.218Z,102271.97
2023-06-03T12:03:40.995Z,102231.06
2023-06-03T12:06:09.730Z,102273.13
2023-06-03T12:08:48.840Z,102251.59
2023-06-03T12:11:28.300Z,102228.44
2023-06-03T12:13:58.941Z,102241.03
2023-06-03T12:16:33.518Z,102231.88
2023-06-03T12:19:05.298Z,102261.75
2023-06-03T12:21:35.010Z,102258.66
2023-06-03T12:24:10.541Z,102209.00
2023-06-03T12:26:42.052Z,102261.91
2023-06-03T12:29:15.560Z,102249.00
2023-06-03T12:31:58.817Z,102217.25
2023-06-03T12:34:35.733Z,102219.13
2023-06-03T12:37:05.386Z,102231.88
2023-06-03T12:39:49.967Z,102198.81
2023-06-03T12:42:20.593Z,102237.28
2023-06-03T12:44:54.293Z,102261.16
2023-06-03T12:47:24.000Z,102173.25
2023-06-03T12:50:07.604Z,102260.63
2023-06-03T12:52:38.428Z,102211.28
2023-06-03T12:55:09.428Z,102239.84
2023-06-03T12:57:40.021Z,102230.66
2023-06-03T13:00:16.352Z,102234.41
2023-06-03T13:02:47.517Z,102146.94
2023-06-03T13:05:17.066Z,102262.16
2023-06-03T13:07:47.134Z,102243.59
2023-06-03T13:10:20.168Z,102083.25
2023-06-03T13:12:49.292Z,102233.41
2023-06-03T13:15:19.406Z,102233.25
2023-06-03T13:17:47.892Z,102211.44
2023-06-03T13:20:17.377Z,102227.91
2023-06-03T13:22:46.277Z,102153.56
2023-06-03T13:25:14.571Z,102225.72
2023-06-03T13:27:43.749Z,102194.06
2023-06-03T13:30:16.353Z,102202.16
2023-06-03T13:32:46.756Z,102220.56
2023-06-03T13:35:15.439Z,102232.66
2023-06-03T13:37:43.633Z,102219.06
2023-06-03T13:40:12.577Z,102228.59
2023-06-03T13:42:43.055Z,102164.06
2023-06-03T13:45:12.349Z,102155.09
2023-06-03T13:47:41.185Z,102224.38
2023-06-03T13:50:11.988Z,102220.88
2023-06-03T13:52:40.578Z,102178.00
2023-06-03T13:55:11.047Z,102221.16
2023-06-03T13:57:39.295Z,102224.16
2023-06-03T14:00:11.986Z,102214.69
2023-06-03T14:02:40.333Z,102210.16
2023-06-03T14:05:11.486Z,102203.91
2023-06-03T14:07:39.892Z,102181.88
2023-06-03T14:10:10.412Z,102074.53
2023-06-03T14:12:38.803Z,102171.88
2023-06-03T14:15:08.985Z,102089.44
2023-06-03T14:17:37.563Z,102129.63
2023-06-03T14:20:08.885Z,102193.19
2023-06-03T14:22:38.655Z,102202.63
2023-06-03T14:25:08.521Z,102189.78
2023-06-03T14:27:36.861Z,102195.88
2023-06-03T14:30:06.950Z,102201.97
2023-06-03T14:32:35.536Z,102172.13
2023-06-03T14:35:08.887Z,102087.22
2023-06-03T14:37:39.821Z,102182.31
2023-06-03T14:40:10.037Z,102178.06
2023-06-03T14:42:38.529Z,102191.63
2023-06-03T14:45:08.470Z,102151.97
2023-06-03T14:47:36.834Z,102185.94
2023-06-03T14:50:06.057Z,102063.63
2023-06-03T14:52:35.033Z,102186.53
2023-06-03T14:55:08.473Z,102187.44
2023-06-03T14:57:38.516Z,102100.06
2023-06-03T15:00:08.640Z,102157.44
2023-06-03T15:02:37.058Z,102172.34
2023-06-03T15:05:06.381Z,102169.44
2023-06-03T15:07:34.681Z,102149.88
2023-06-03T15:10:04.727Z,102092.41
2023-06-03T15:12:33.275Z,102151.47
2023-06-03T15:15:01.643Z,102129.03
2023-06-03T15:17:29.872Z,102167.75
2023-06-03T15:19:58.414Z,102079.22
2023-06-03T15:22:26.879Z,102146.28
2023-06-03T15:24:55.294Z,102161.47
2023-06-03T15:27:24.950Z,102081.25
2023-06-03T15:29:53.251Z,102144.56
2023-06-03T15:32:21.727Z,102144.97
2023-06-03T15:34:50.021Z,102150.53
2023-06-03T15:37:18.373Z,102158.00
2023-06-03T15:39:46.645Z,102112.91
2023-06-03T15:42:15.504Z,102037.25
2023-06-03T15:44:47.744Z,102131.53
2023-06-03T15:47:16.342Z,102020.88
2023-06-03T15:49:44.584Z,102137.53
2023-06-03T15:52:12.817Z,102138.09
2023-06-03T15:54:41.101Z,102138.63
2023-06-03T15:57:09.793Z,102129.91
2023-06-03T15:59:38.029Z,102144.31
2023-06-03T16:02:10.042Z,102112.31
2023-06-03T16:04:38.486Z,102145.06
2023-06-03T16:07:07.007Z,102043.88
2023-06-03T16:09:38.499Z,102083.81
2023-06-03T16:12:07.484Z,102139.81
2023-06-03T16:14:36.558Z,102052.47
2023-06-03T16:17:06.335Z,102108.63
2023-06-03T16:19:36.188Z,102129.84
2023-06-03T16:22:04.750Z,102131.94
2023-06-03T16:24:33.817Z,102092.16
2023-06-03T16:27:02.473Z,102131.84
2023-06-03T16:29:31.262Z,102050.44
2023-06-03T16:31:59.904Z,102129.91
2023-06-03T16:34:30.051Z,102118.97
2023-06-03T16:36:59.760Z,102127.59
2023-06-03T16:39:28.023Z,102114.38
2023-06-03T16:41:56.605Z,102127.88
2023-06-03T16:44:24.898Z,102136.50
2023-06-03T16:46:53.166Z,102132.66
2023-06-03T16:49:22.858Z,102110.94
2023-06-03T16:51:51.897Z,102098.50
2023-06-03T16:54:21.724Z,102121.91
2023-06-03T16:56:49.921Z,102123.72
2023-06-03T16:59:18.386Z,102117.63
2023-06-03T17:01:47.202Z,102113.97
2023-06-03T17:04:15.903Z,102130.00
2023-06-03T17:06:44.255Z,102117.38
2023-06-03T17:09:13.255Z,102116.59
2023-06-03T17:11:42.974Z,102124.03
2023-06-03T17:14:11.617Z,102116.97
2023-06-03T17:16:42.434Z,102115.84
2023-06-03T17:19:11.048Z,102110.38
2023-06-03T17:21:39.370Z,102089.75
2023-06-03T17:24:08.540Z,102087.41
2023-06-03T17:26:36.935Z,102120.72
2023-06-03T17:29:08.482Z,102095.81
2023-06-03T17:31:37.016Z,102117.16
2023-06-03T17:34:05.297Z,102004.44
2023-06-03T17:36:33.639Z,102108.06
2023-06-03T17:39:02.046Z,102087.50
2023-06-03T17:41:30.405Z,102092.84
2023-06-03T17:43:58.880Z,102103.75
2023-06-03T17:46:28.537Z,102106.56
2023-06-03T17:48:56.941Z,102105.34
2023-06-03T17:51:25.855Z,102052.19
2023-06-03T17:53:54.638Z,102111.44
2023-06-03T17:56:22.936Z,102115.56
2023-06-03T17:58:51.188Z,101991.38
2023-06-03T18:01:19.533Z,102114.34
2023-06-03T18:03:49.197Z,102111.81
2023-06-03T18:06:19.501Z,102095.31
2023-06-03T18:08:48.077Z,102118.50
2023-06-03T18:11:16.433Z,102116.25
2023-06-03T18:13:44.812Z,102133.13
2023-06-03T18:16:13.077Z,102120.06
2023-06-03T18:18:41.330Z,102125.13
2023-06-03T18:21:10.993Z,102028.22
2023-06-03T18:23:39.482Z,102133.44
2023-06-03T18:26:16.331Z,102002.63
2023-06-03T18:28:55.744Z,102136.47
2023-06-03T18:31:24.219Z,102142.81
2023-06-03T18:33:52.690Z,102137.19
2023-06-03T18:36:22.413Z,102023.25
2023-06-03T18:38:50.876Z,102137.50
2023-06-03T18:41:19.190Z,102133.94
2023-06-03T18:43:47.554Z,102084.94
2023-06-03T18:46:15.902Z,102139.81
2023-06-03T18:48:44.335Z,102146.88
2023-06-03T18:51:14.145Z,102147.50
2023-06-03T18:53:44.080Z,102131.13
2023-06-03T18:56:15.218Z,102014.00
2023-06-03T18:58:47.494Z,102125.34
2023-06-03T19:01:18.159Z,102017.75
2023-06-03T19:03:46.801Z,102155.16
2023-06-03T19:06:16.444Z,102163.03
2023-06-03T19:08:46.208Z,102163.16
2023-06-03T19:11:14.526Z,102135.75
2023-06-03T19:13:42.966Z,102162.69
2023-06-03T19:16:11.429Z,102160.22
2023-06-03T19:18:39.791Z,102163.03
2023-06-03T19:21:10.847Z,102149.66
2023-06-03T19:23:40.381Z,102020.06
2023-06-03T19:26:10.921Z,102166.63
2023-06-03T19:28:39.220Z,102158.56
2023-06-03T19:31:07.633Z,102170.28
2023-06-03T19:33:35.933Z,102168.25
2023-06-03T19:36:04.505Z,102164.56
2023-06-03T19:38:32.972Z,102129.72
2023-06-03T19:41:01.571Z,102030.59
2023-06-03T19:43:31.304Z,102157.53
2023-06-03T19:45:59.603Z,102068.09
2023-06-03T19:48:27.952Z,102171.69
2023-06-03T19:50:56.544Z,102168.31
2023-06-03T19:53:24.917Z,102161.09
2023-06-03T19:55:53.373Z,102184.94
2023-06-03T19:58:23.440Z,102136.09
2023-06-03T20:00:55.370Z,102189.31
2023-06-03T20:03:26.678Z,102190.31
2023-06-03T20:05:55.132Z,102193.53
2023-06-03T20:08:23.443Z,102191.13
2023-06-03T20:10:56.569Z,101983.19
2023-06-03T20:13:35.472Z,102178.63
2023-06-03T20:16:08.711Z,102163.88
2023-06-03T20:18:37.524Z,102177.34
2023-06-03T20:21:06.287Z,102206.03
2023-06-03T20:23:34.717Z,102078.19
2023-06-03T20:26:03.357Z,102209.91
2023-06-03T20:28:32.321Z,102207.72
2023-06-03T20:31:08.746Z,102216.81
2023-06-03T20:33:39.781Z,102193.59
2023-06-03T20:36:11.360Z,102126.88
2023-06-03T20:38:39.728Z,102216.66
2023-06-03T20:41:08.280Z,102161.75
2023-06-03T20:43:36.700Z,102180.78
2023-06-03T20:46:06.719Z,102224.59
2023-06-03T20:48:35.520Z,102200.84
2023-06-03T20:51:07.602Z,102226.78
2023-06-03T20:53:36.356Z,102223.50
2023-06-03T20:56:08.020Z,102234.50
2023-06-03T20:58:36.547Z,102194.16
2023-06-03T21:01:06.959Z,102212.00
2023-06-03T21:03:37.100Z,102145.38
2023-06-03T21:06:13.365Z,102236.75
2023-06-03T21:08:41.819Z,102238.25
2023-06-03T21:11:11.527Z,102242.94
2023-06-03T21:13:40.174Z,102179.63
2023-06-03T21:16:10.792Z,102240.72
2023-06-03T21:18:42.539Z,102186.59
2023-06-03T21:21:11.019Z,102247.63
2023-06-03T21:23:42.257Z,102245.75
2023-06-03T21:26:11.266Z,102230.16
2023-06-03T21:28:39.598Z,102255.72
2023-06-03T21:31:09.674Z,102201.66
2023-06-03T21:33:38.177Z,102260.97
2023-06-03T21:36:06.750Z,102240.56
2023-06-03T21:38:35.077Z,102196.34
2023-06-03T21:41:04.562Z,102234.84
2023-06-03T21:43:33.081Z,102241.53
2023-06-03T21:46:01.440Z,102261.00
2023-06-03T21:48:31.458Z,102223.03
2023-06-03T21:50:59.778Z,102245.53
2023-06-03T21:53:28.072Z,102234.94
2023-06-03T21:55:56.506Z,102193.19
2023-06-03T21:58:25.422Z,102255.59
2023-06-03T22:00:53.983Z,102227.78
2023-06-03T22:03:22.304Z,102256.13
2023-06-03T22:05:52.103Z,102230.34
2023-06-03T22:08:20.726Z,102261.00
2023-06-03T22:10:49.044Z,102246.69
2023-06-03T22:13:17.902Z,102182.38
2023-06-03T22:15:46.301Z,102211.31
2023-06-03T22:18:16.302Z,102268.69
2023-06-03T22:20:44.701Z,102268.38
2023-06-03T22:23:14.393Z,102272.59
2023-06-03T22:25:42.750Z,102280.66
2023-06-03T22:28:11.382Z,102271.66
2023-06-03T22:30:40.068Z,102279.19
2023-06-03T22:33:09.678Z,102131.19
2023-06-03T22:35:41.394Z,102227.50
2023-06-03T22:38:10.148Z,102249.38
2023-06-03T22:40:40.155Z,102275.84
2023-06-03T22:43:08.571Z,102280.50
2023-06-03T22:45:36.826Z,102276.00
2023-06-03T22:48:06.118Z,102242.75
2023-06-03T22:50:34.437Z,102286.00
2023-06-03T22:53:03.026Z,102287.19
2023-06-03T22:55:31.236Z,102263.88
2023-06-03T22:58:02.426Z,102149.19
2023-06-03T23:00:31.097Z,102236.81
2023-06-03T23:02:59.961Z,102255.91
2023-06-03T23:05:28.488Z,102288.47
2023-06-03T23:07:57.110Z,102243.78
2023-06-03T23:10:25.359Z,102297.72
2023-06-03T23:12:53.758Z,102299.13
2023-06-03T23:15:23.744Z,102277.84
2023-06-03T23:17:54.292Z,102297.31
2023-06-03T23:20:25.495Z,102229.69
2023-06-03T23:22:53.894Z,102295.88
2023-06-03T23:25:23.045Z,102307.19
2023-06-03T23:27:51.650Z,102245.31
2023-06-03T23:30:21.105Z,102276.91
2023-06-03T23:32:51.219Z,102313.44
2023-06-03T23:35:21.020Z,102242.81
2023-06-03T23:37:49.304Z,102271.47
2023-06-03T23:40:17.956Z,102311.22
2023-06-03T23:42:46.300Z,102303.03
2023-06-03T23:45:14.770Z,102303.75
2023-06-03T23:47:43.248Z,102302.50
2023-06-03T23:50:14.295Z,102294.16
2023-06-03T23:52:42.638Z,102256.81
2023-06-03T23:55:12.029Z,102303.50
2023-06-03T23:57:40.295Z,102298.69
